Observations for BINGHAMTON BROOME, NY (BGM)

KBGM 230953Z AUTO 12009KT 10SM -RA FEW011 SCT025 OVC032 14/13 A2989 RMK AO2 RAE08B12 SLP116 P0001 T01440133 
KBGM 230926Z AUTO 12009KT 10SM -RA BKN011 BKN027 OVC034 14/13 A2989 RMK AO2 RAE08B12 P0000 T01440133
KBGM 230936Z AUTO 12008KT 10SM -RA SCT011 BKN029 OVC038 14/13 A2989 RMK AO2 RAE08B12 P0000 T01440133
KBGM 230944Z AUTO 12008KT 10SM -RA SCT011 OVC030 14/13 A2989 RMK AO2 RAE08B12 P0000 T01440133
KBGM 230910Z AUTO 13007KT 9SM SCT009 BKN015 OVC034 15/13 A2990 RMK AO2 RAE08 P0000 T01500133
KBGM 230904Z AUTO 13008KT 10SM -RA BKN013 OVC035 15/13 A2990 RMK AO2 P0000 T01500133
KBGM 230853Z AUTO 13010KT 8SM -RA BKN015 OVC035 15/13 A2991 RMK AO2 RAB36 SLP121 P0002 60002 T01500133 58010
KBGM 230753Z AUTO 15011KT 10SM BKN021 OVC027 16/12 A2992 RMK AO2 SLP124 T01610122   
KBGM 230653Z AUTO 15007KT 10SM BKN023 BKN028 OVC045 16/12 A2994 RMK AO2 SLP130 T01610122
KBGM 230619Z AUTO 14009KT 10SM BKN024 OVC050 16/12 A2994 RMK AO2 T01610122
KBGM 230553Z AUTO 13011KT 10SM SCT026 OVC055 17/12 A2994 RMK AO2 SLP129 60000 T01670122 10200 20167 56017   
KBGM 230453Z AUTO 13014G18KT 10SM OVC060 17/12 A2995 RMK AO2 RAE0355 SLP134 P0000 T01670122 402330089   
KBGM 230353Z AUTO 13006KT 10SM -RA OVC065 17/12 A2997 RMK AO2 RAB44 SLP142 P0000 T01670122  
KBGM 230253Z 16006KT 10SM SCT028 OVC075 18/12 A2999 RMK AO2 SLP148 60000 T01780122 53006
KBGM 230153Z 17007KT 10SM FEW026 OVC085 18/14 A2999 RMK AO2 RAB0058E33 SLP148 P0000 T01780139   
KBGM 230053Z 15007KT 10SM FEW031 BKN100 BKN110 19/13 A2997 RMK AO2 SLP143 T01940133 
KBGM 222353Z 14006KT 10SM FEW037 OVC100 20/13 A2997 RMK AO2 SLP144 T02000133 10222 20200 56004  
KBGM 222253Z 15008KT 10SM SCT032 OVC120 21/13 A2998 RMK AO2 SLP147 T02060133
KBGM 222153Z 15008KT 10SM CLR 21/14 A2997 RMK AO2 SLP145 T02110139  
KBGM 222053Z 15008KT 10SM CLR 22/13 A2998 RMK AO2 SLP149 T02170133 58005
KBGM 221953Z AUTO 14011KT 10SM CLR 21/13 A2999 RMK AO2 SLP152 T02110133 
KBGM 221853Z AUTO 14008KT 10SM FEW110 21/14 A3000 RMK AO2 SLP155 T02110139  
KBGM 221753Z 19010KT 10SM SCT032 22/14 A3000 RMK AO2 SLP154 T02170139 10233 20133 58002 
KBGM 221653Z 16008G14KT 10SM SCT030 23/14 A3000 RMK AO2 SLP154 T02280144
KBGM 221553Z 14008KT 10SM CLR 21/13 A3001 RMK AO2 SLP156 T02060128  
KBGM 221453Z 14008KT 10SM CLR 19/12 A3000 RMK AO2 SLP155 T01940117 51003
KBGM 221353Z 15010KT 10SM CLR 18/11 A3000 RMK AO2 SLP155 T01830106  
KBGM 221253Z 11008KT 10SM CLR 14/08 A3000 RMK AO2 SLP155 T01390083  
KBGM 221153Z 10007KT 10SM CLR 13/08 A3000 RMK AO2 SLP153 T01330078 10133 20089 53010
KBGM 221053Z 08006KT 10SM CLR 11/06 A2999 RMK AO2 SLP150 T01110061  
KBGM 220953Z 07007KT 10SM CLR 09/06 A2997 RMK AO2 SLP145 T00940061